sensor_id;sensor_type;location;lat;lon;timestamp;pressure;altitude;pressure_sealevel;temperature;humidity
61697;BME280;47610;52.252;20.922;2022-11-09T00:02:42;100303.46;;;7.20;85.93
61697;BME280;47610;52.252;20.922;2022-11-09T00:08:08;100301.35;;;7.17;86.15
61697;BME280;47610;52.252;20.922;2022-11-09T00:13:37;100297.48;;;7.15;85.91
61697;BME280;47610;52.252;20.922;2022-11-09T00:19:00;100295.40;;;7.14;86.20
61697;BME280;47610;52.252;20.922;2022-11-09T00:24:23;100298.52;;;7.14;85.88
61697;BME280;47610;52.252;20.922;2022-11-09T00:29:47;100286.68;;;7.13;86.35
61697;BME280;47610;52.252;20.922;2022-11-09T00:35:09;100285.63;;;7.11;86.41
61697;BME280;47610;52.252;20.922;2022-11-09T00:45:54;100293.29;;;7.11;86.34
61697;BME280;47610;52.252;20.922;2022-11-09T00:51:16;100287.61;;;7.12;86.62
61697;BME280;47610;52.252;20.922;2022-11-09T00:56:39;100287.67;;;7.13;86.33
61697;BME280;47610;52.252;20.922;2022-11-09T01:02:01;100288.75;;;7.13;86.40
61697;BME280;47610;52.252;20.922;2022-11-09T01:07:23;100287.88;;;7.12;86.05
61697;BME280;47610;52.252;20.922;2022-11-09T01:12:46;100275.80;;;7.10;86.25
61697;BME280;47610;52.252;20.922;2022-11-09T01:18:08;100283.07;;;7.08;86.22
61697;BME280;47610;52.252;20.922;2022-11-09T01:23:31;100279.90;;;7.09;86.20
61697;BME280;47610;52.252;20.922;2022-11-09T01:28:54;100281.98;;;7.06;86.48
61697;BME280;47610;52.252;20.922;2022-11-09T01:34:21;100275.88;;;7.01;86.15
61697;BME280;47610;52.252;20.922;2022-11-09T01:39:43;100274.10;;;6.96;86.13
61697;BME280;47610;52.252;20.922;2022-11-09T01:45:24;100269.06;;;6.92;86.27
61697;BME280;47610;52.252;20.922;2022-11-09T01:50:53;100264.98;;;6.86;86.74
61697;BME280;47610;52.252;20.922;2022-11-09T01:56:18;100264.52;;;6.80;86.79
61697;BME280;47610;52.252;20.922;2022-11-09T02:01:43;100254.75;;;6.77;87.10
61697;BME280;47610;52.252;20.922;2022-11-09T02:07:08;100252.08;;;6.73;87.11
61697;BME280;47610;52.252;20.922;2022-11-09T02:12:33;100250.38;;;6.69;87.10
61697;BME280;47610;52.252;20.922;2022-11-09T02:17:57;100253.86;;;6.67;87.69
61697;BME280;47610;52.252;20.922;2022-11-09T02:23:22;100246.98;;;6.64;87.77
61697;BME280;47610;52.252;20.922;2022-11-09T02:28:45;100244.54;;;6.62;87.86
61697;BME280;47610;52.252;20.922;2022-11-09T02:34:10;100239.27;;;6.60;88.00
61697;BME280;47610;52.252;20.922;2022-11-09T02:39:35;100236.82;;;6.57;88.51
61697;BME280;47610;52.252;20.922;2022-11-09T02:44:59;100233.71;;;6.54;88.37
61697;BME280;47610;52.252;20.922;2022-11-09T02:50:23;100232.58;;;6.51;88.65
61697;BME280;47610;52.252;20.922;2022-11-09T02:55:46;100237.48;;;6.49;88.72
61697;BME280;47610;52.252;20.922;2022-11-09T03:01:08;100239.92;;;6.47;88.74
61697;BME280;47610;52.252;20.922;2022-11-09T03:06:31;100245.42;;;6.47;88.85
61697;BME280;47610;52.252;20.922;2022-11-09T03:11:54;100243.63;;;6.50;89.01
61697;BME280;47610;52.252;20.922;2022-11-09T03:17:16;100246.63;;;6.51;88.88
61697;BME280;47610;52.252;20.922;2022-11-09T03:22:39;100256.54;;;6.51;89.16
61697;BME280;47610;52.252;20.922;2022-11-09T03:28:05;100254.18;;;6.51;88.99
61697;BME280;47610;52.252;20.922;2022-11-09T03:33:28;100253.09;;;6.51;88.71
61697;BME280;47610;52.252;20.922;2022-11-09T03:38:50;100254.89;;;6.50;88.82
61697;BME280;47610;52.252;20.922;2022-11-09T03:44:13;100247.96;;;6.48;88.72
61697;BME280;47610;52.252;20.922;2022-11-09T03:49:35;100248.06;;;6.48;88.84
61697;BME280;47610;52.252;20.922;2022-11-09T03:54:57;100246.92;;;6.48;89.06
61697;BME280;47610;52.252;20.922;2022-11-09T04:00:21;100239.46;;;6.50;89.04
61697;BME280;47610;52.252;20.922;2022-11-09T04:05:45;100233.10;;;6.52;88.88
61697;BME280;47610;52.252;20.922;2022-11-09T04:11:07;100227.69;;;6.53;88.84
61697;BME280;47610;52.252;20.922;2022-11-09T04:16:32;100230.30;;;6.52;89.08
61697;BME280;47610;52.252;20.922;2022-11-09T04:21:55;100228.32;;;6.51;88.72
61697;BME280;47610;52.252;20.922;2022-11-09T04:27:18;100229.61;;;6.50;89.03
61697;BME280;47610;52.252;20.922;2022-11-09T04:32:40;100225.94;;;6.49;88.85
61697;BME280;47610;52.252;20.922;2022-11-09T04:38:07;100224.41;;;6.46;88.90
61697;BME280;47610;52.252;20.922;2022-11-09T04:43:31;100224.20;;;6.43;89.18
61697;BME280;47610;52.252;20.922;2022-11-09T04:48:53;100222.93;;;6.38;89.28
61697;BME280;47610;52.252;20.922;2022-11-09T04:54:16;100227.65;;;6.31;89.48
61697;BME280;47610;52.252;20.922;2022-11-09T04:59:41;100227.98;;;6.27;89.84
61697;BME280;47610;52.252;20.922;2022-11-09T05:05:04;100222.41;;;6.24;89.99
61697;BME280;47610;52.252;20.922;2022-11-09T05:10:28;100223.80;;;6.21;90.10
61697;BME280;47610;52.252;20.922;2022-11-09T05:15:50;100218.30;;;6.20;90.40
61697;BME280;47610;52.252;20.922;2022-11-09T05:21:12;100227.59;;;6.19;90.49
61697;BME280;47610;52.252;20.922;2022-11-09T05:26:37;100219.40;;;6.17;90.42
61697;BME280;47610;52.252;20.922;2022-11-09T05:32:02;100222.71;;;6.15;90.39
61697;BME280;47610;52.252;20.922;2022-11-09T05:37:24;100222.55;;;6.15;90.37
61697;BME280;47610;52.252;20.922;2022-11-09T05:42:50;100230.70;;;6.16;90.54
61697;BME280;47610;52.252;20.922;2022-11-09T05:48:15;100228.55;;;6.11;90.91
61697;BME280;47610;52.252;20.922;2022-11-09T05:53:36;100230.27;;;6.12;91.14
61697;BME280;47610;52.252;20.922;2022-11-09T05:58:58;100225.29;;;6.12;91.18
61697;BME280;47610;52.252;20.922;2022-11-09T06:04:20;100225.81;;;6.14;91.21
61697;BME280;47610;52.252;20.922;2022-11-09T06:09:44;100228.52;;;6.20;91.25
61697;BME280;47610;52.252;20.922;2022-11-09T06:15:08;100232.11;;;6.26;91.14
61697;BME280;47610;52.252;20.922;2022-11-09T06:20:31;100227.25;;;6.30;90.96
61697;BME280;47610;52.252;20.922;2022-11-09T06:25:55;100231.23;;;6.37;90.88
61697;BME280;47610;52.252;20.922;2022-11-09T06:31:17;100239.91;;;6.44;90.57
61697;BME280;47610;52.252;20.922;2022-11-09T06:36:40;100246.19;;;6.50;90.28
61697;BME280;47610;52.252;20.922;2022-11-09T06:42:03;100245.27;;;6.56;90.20
61697;BME280;47610;52.252;20.922;2022-11-09T06:47:27;100246.34;;;6.61;90.14
61697;BME280;47610;52.252;20.922;2022-11-09T06:52:49;100237.88;;;6.66;89.72
61697;BME280;47610;52.252;20.922;2022-11-09T06:58:16;100226.48;;;6.78;89.65
61697;BME280;47610;52.252;20.922;2022-11-09T07:03:40;100231.42;;;6.93;89.23
61697;BME280;47610;52.252;20.922;2022-11-09T07:09:02;100223.52;;;7.05;88.93
61697;BME280;47610;52.252;20.922;2022-11-09T07:14:24;100222.50;;;7.13;88.45
61697;BME280;47610;52.252;20.922;2022-11-09T07:19:47;100224.97;;;7.17;88.34
61697;BME280;47610;52.252;20.922;2022-11-09T07:25:12;100222.90;;;7.24;88.01
61697;BME280;47610;52.252;20.922;2022-11-09T07:30:35;100228.53;;;7.28;87.66
61697;BME280;47610;52.252;20.922;2022-11-09T07:36:00;100229.59;;;7.40;87.72
61697;BME280;47610;52.252;20.922;2022-11-09T07:41:23;100236.33;;;7.51;87.27
61697;BME280;47610;52.252;20.922;2022-11-09T07:46:47;100241.15;;;7.68;87.18
61697;BME280;47610;52.252;20.922;2022-11-09T07:52:10;100226.25;;;7.88;86.44
61697;BME280;47610;52.252;20.922;2022-11-09T07:57:32;100227.16;;;8.06;86.04
61697;BME280;47610;52.252;20.922;2022-11-09T08:02:56;100228.23;;;8.26;85.56
61697;BME280;47610;52.252;20.922;2022-11-09T08:08:21;100231.98;;;8.50;84.76
61697;BME280;47610;52.252;20.922;2022-11-09T08:13:45;100226.38;;;8.80;83.90
61697;BME280;47610;52.252;20.922;2022-11-09T08:19:07;100227.55;;;9.02;83.02
61697;BME280;47610;52.252;20.922;2022-11-09T08:24:29;100225.38;;;9.29;82.49
61697;BME280;47610;52.252;20.922;2022-11-09T08:29:52;100222.32;;;9.63;81.58
61697;BME280;47610;52.252;20.922;2022-11-09T08:35:15;100215.67;;;9.72;80.20
61697;BME280;47610;52.252;20.922;2022-11-09T08:40:39;100213.03;;;10.05;79.95
61697;BME280;47610;52.252;20.922;2022-11-09T08:46:01;100206.13;;;10.38;78.83
61697;BME280;47610;52.252;20.922;2022-11-09T08:51:24;100210.52;;;10.82;77.42
61697;BME280;47610;52.252;20.922;2022-11-09T08:56:46;100205.90;;;11.05;75.21
61697;BME280;47610;52.252;20.922;2022-11-09T09:02:10;100208.73;;;11.12;75.09
61697;BME280;47610;52.252;20.922;2022-11-09T09:07:33;100206.98;;;11.21;74.22
61697;BME280;47610;52.252;20.922;2022-11-09T09:13:02;100209.06;;;11.48;73.26
61697;BME280;47610;52.252;20.922;2022-11-09T09:18:25;100212.63;;;12.27;72.79
61697;BME280;47610;52.252;20.922;2022-11-09T09:23:49;100220.28;;;12.72;71.34
61697;BME280;47610;52.252;20.922;2022-11-09T09:29:13;100220.80;;;12.64;70.21
61697;BME280;47610;52.252;20.922;2022-11-09T09:34:38;100217.70;;;12.81;69.62
61697;BME280;47610;52.252;20.922;2022-11-09T09:39:59;100219.77;;;13.21;68.66
61697;BME280;47610;52.252;20.922;2022-11-09T09:45:25;100227.33;;;13.49;67.73
61697;BME280;47610;52.252;20.922;2022-11-09T09:50:52;100221.20;;;13.59;66.40
61697;BME280;47610;52.252;20.922;2022-11-09T09:56:19;100221.86;;;13.33;66.31
61697;BME280;47610;52.252;20.922;2022-11-09T10:01:44;100217.00;;;13.01;66.14
61697;BME280;47610;52.252;20.922;2022-11-09T10:07:13;100217.05;;;12.78;66.82
61697;BME280;47610;52.252;20.922;2022-11-09T10:12:48;100217.72;;;12.54;67.19
61697;BME280;47610;52.252;20.922;2022-11-09T10:18:33;100213.61;;;12.45;67.89
61697;BME280;47610;52.252;20.922;2022-11-09T10:29:55;100206.27;;;12.30;68.54
61697;BME280;47610;52.252;20.922;2022-11-09T10:35:25;100203.33;;;12.21;68.59
61697;BME280;47610;52.252;20.922;2022-11-09T10:40:54;100195.59;;;12.17;68.67
61697;BME280;47610;52.252;20.922;2022-11-09T10:46:20;100197.77;;;12.18;68.97
61697;BME280;47610;52.252;20.922;2022-11-09T10:51:44;100204.39;;;12.29;68.87
61697;BME280;47610;52.252;20.922;2022-11-09T10:57:13;100200.80;;;12.46;68.84
61697;BME280;47610;52.252;20.922;2022-11-09T11:02:46;100195.09;;;12.48;68.34
61697;BME280;47610;52.252;20.922;2022-11-09T11:08:31;100195.08;;;12.44;68.20
61697;BME280;47610;52.252;20.922;2022-11-09T11:14:09;100195.20;;;12.48;68.47
61697;BME280;47610;52.252;20.922;2022-11-09T11:19:37;100191.29;;;12.53;68.72
61697;BME280;47610;52.252;20.922;2022-11-09T11:25:04;100187.41;;;12.58;68.23
61697;BME280;47610;52.252;20.922;2022-11-09T11:30:34;100179.90;;;12.64;68.19
61697;BME280;47610;52.252;20.922;2022-11-09T11:36:03;100185.80;;;12.65;68.14
61697;BME280;47610;52.252;20.922;2022-11-09T11:41:46;100184.80;;;12.64;67.93
61697;BME280;47610;52.252;20.922;2022-11-09T11:47:23;100177.70;;;12.62;67.44
61697;BME280;47610;52.252;20.922;2022-11-09T11:53:12;100186.16;;;12.56;67.39
61697;BME280;47610;52.252;20.922;2022-11-09T11:58:50;100194.52;;;12.59;67.50
61697;BME280;47610;52.252;20.922;2022-11-09T12:04:35;100197.91;;;12.68;67.30
61697;BME280;47610;52.252;20.922;2022-11-09T12:10:22;100196.38;;;12.75;67.63
61697;BME280;47610;52.252;20.922;2022-11-09T12:15:53;100190.84;;;12.90;67.38
61697;BME280;47610;52.252;20.922;2022-11-09T12:21:20;100189.35;;;13.02;66.61
61697;BME280;47610;52.252;20.922;2022-11-09T12:26:59;100176.02;;;13.12;66.18
61697;BME280;47610;52.252;20.922;2022-11-09T12:32:33;100166.89;;;13.13;65.59
61697;BME280;47610;52.252;20.922;2022-11-09T12:38:02;100166.30;;;13.07;65.30
61697;BME280;47610;52.252;20.922;2022-11-09T12:43:31;100169.40;;;13.02;65.45
61697;BME280;47610;52.252;20.922;2022-11-09T12:48:58;100170.67;;;12.94;65.49
61697;BME280;47610;52.252;20.922;2022-11-09T12:54:23;100170.33;;;12.88;65.63
61697;BME280;47610;52.252;20.922;2022-11-09T12:59:49;100168.77;;;12.80;65.61
61697;BME280;47610;52.252;20.922;2022-11-09T13:10:46;100186.79;;;12.82;66.04
61697;BME280;47610;52.252;20.922;2022-11-09T13:16:36;100188.91;;;12.71;66.02
61697;BME280;47610;52.252;20.922;2022-11-09T13:21:58;100188.65;;;12.66;66.18
61697;BME280;47610;52.252;20.922;2022-11-09T13:27:44;100176.71;;;12.57;66.35
61697;BME280;47610;52.252;20.922;2022-11-09T13:33:26;100173.63;;;12.47;66.71
61697;BME280;47610;52.252;20.922;2022-11-09T13:39:29;100177.25;;;12.39;66.98
61697;BME280;47610;52.252;20.922;2022-11-09T13:44:51;100178.70;;;12.31;67.00
61697;BME280;47610;52.252;20.922;2022-11-09T13:50:20;100183.17;;;12.27;67.72
61697;BME280;47610;52.252;20.922;2022-11-09T13:55:43;100177.75;;;12.22;67.77
61697;BME280;47610;52.252;20.922;2022-11-09T14:01:21;100179.68;;;12.17;67.67
61697;BME280;47610;52.252;20.922;2022-11-09T14:06:45;100175.58;;;12.08;68.03
61697;BME280;47610;52.252;20.922;2022-11-09T14:12:32;100187.30;;;12.05;68.56
61697;BME280;47610;52.252;20.922;2022-11-09T14:18:08;100194.23;;;12.02;68.69
61697;BME280;47610;52.252;20.922;2022-11-09T14:23:33;100190.04;;;12.02;68.75
61697;BME280;47610;52.252;20.922;2022-11-09T14:28:55;100202.05;;;12.03;69.01
61697;BME280;47610;52.252;20.922;2022-11-09T14:34:18;100215.93;;;12.07;69.07
61697;BME280;47610;52.252;20.922;2022-11-09T14:39:41;100214.36;;;12.08;69.09
61697;BME280;47610;52.252;20.922;2022-11-09T14:45:14;100210.23;;;12.07;69.27
61697;BME280;47610;52.252;20.922;2022-11-09T14:50:37;100208.38;;;12.06;69.35
61697;BME280;47610;52.252;20.922;2022-11-09T14:56:02;100210.02;;;12.01;69.27
61697;BME280;47610;52.252;20.922;2022-11-09T15:01:25;100212.42;;;11.98;69.74
61697;BME280;47610;52.252;20.922;2022-11-09T15:06:50;100217.79;;;11.96;69.73
61697;BME280;47610;52.252;20.922;2022-11-09T15:12:13;100213.30;;;11.91;69.85
61697;BME280;47610;52.252;20.922;2022-11-09T15:17:37;100213.15;;;11.87;70.24
61697;BME280;47610;52.252;20.922;2022-11-09T15:23:00;100201.59;;;11.82;70.45
61697;BME280;47610;52.252;20.922;2022-11-09T15:28:26;100200.48;;;11.77;70.70
61697;BME280;47610;52.252;20.922;2022-11-09T15:33:50;100198.43;;;11.70;70.83
61697;BME280;47610;52.252;20.922;2022-11-09T15:39:17;100195.33;;;11.58;71.21
61697;BME280;47610;52.252;20.922;2022-11-09T15:44:39;100191.48;;;11.46;71.53
61697;BME280;47610;52.252;20.922;2022-11-09T15:50:05;100193.98;;;11.37;71.78
61697;BME280;47610;52.252;20.922;2022-11-09T15:55:28;100203.55;;;11.31;72.42
61697;BME280;47610;52.252;20.922;2022-11-09T16:00:49;100199.56;;;11.27;72.44
61697;BME280;47610;52.252;20.922;2022-11-09T16:06:16;100193.34;;;11.25;72.61
61697;BME280;47610;52.252;20.922;2022-11-09T16:11:38;100196.88;;;11.23;72.87
61697;BME280;47610;52.252;20.922;2022-11-09T16:17:00;100195.47;;;11.18;72.99
61697;BME280;47610;52.252;20.922;2022-11-09T16:22:22;100186.02;;;11.12;73.53
61697;BME280;47610;52.252;20.922;2022-11-09T16:27:44;100183.48;;;11.02;74.06
61697;BME280;47610;52.252;20.922;2022-11-09T16:33:07;100190.30;;;10.96;74.16
61697;BME280;47610;52.252;20.922;2022-11-09T16:38:34;100192.27;;;10.87;74.70
61697;BME280;47610;52.252;20.922;2022-11-09T16:55:51;100206.90;;;10.61;75.92
61697;BME280;47610;52.252;20.922;2022-11-09T17:01:13;100202.67;;;10.56;76.18
61697;BME280;47610;52.252;20.922;2022-11-09T17:06:35;100201.09;;;10.50;76.37
61697;BME280;47610;52.252;20.922;2022-11-09T17:11:57;100192.70;;;10.39;76.50
61697;BME280;47610;52.252;20.922;2022-11-09T17:17:20;100195.73;;;10.30;77.24
61697;BME280;47610;52.252;20.922;2022-11-09T17:22:42;100199.42;;;10.21;77.65
61697;BME280;47610;52.252;20.922;2022-11-09T17:28:05;100196.48;;;10.12;77.87
61697;BME280;47610;52.252;20.922;2022-11-09T17:33:27;100190.48;;;10.03;78.43
61697;BME280;47610;52.252;20.922;2022-11-09T17:38:49;100200.38;;;9.98;78.81
61697;BME280;47610;52.252;20.922;2022-11-09T17:44:11;100198.40;;;9.95;79.04
61697;BME280;47610;52.252;20.922;2022-11-09T17:49:33;100194.57;;;9.94;79.09
61697;BME280;47610;52.252;20.922;2022-11-09T17:54:55;100200.33;;;9.92;79.23
61697;BME280;47610;52.252;20.922;2022-11-09T18:00:19;100194.11;;;9.94;79.24
61697;BME280;47610;52.252;20.922;2022-11-09T18:05:42;100196.86;;;9.96;79.12
61697;BME280;47610;52.252;20.922;2022-11-09T18:11:05;100197.54;;;9.95;79.10
61697;BME280;47610;52.252;20.922;2022-11-09T18:16:27;100196.87;;;9.95;79.09
61697;BME280;47610;52.252;20.922;2022-11-09T18:21:49;100195.59;;;9.90;79.25
61697;BME280;47610;52.252;20.922;2022-11-09T18:27:11;100202.47;;;9.89;79.24
61697;BME280;47610;52.252;20.922;2022-11-09T18:32:34;100203.98;;;9.88;79.23
61697;BME280;47610;52.252;20.922;2022-11-09T18:37:56;100203.14;;;9.87;79.44
61697;BME280;47610;52.252;20.922;2022-11-09T18:43:18;100200.89;;;9.85;79.18
61697;BME280;47610;52.252;20.922;2022-11-09T18:48:40;100202.48;;;9.80;79.16
61697;BME280;47610;52.252;20.922;2022-11-09T18:54:03;100204.25;;;9.75;79.37
61697;BME280;47610;52.252;20.922;2022-11-09T18:59:25;100211.98;;;9.72;79.51
61697;BME280;47610;52.252;20.922;2022-11-09T19:04:47;100218.75;;;9.69;79.50
61697;BME280;47610;52.252;20.922;2022-11-09T19:10:10;100225.56;;;9.66;79.71
61697;BME280;47610;52.252;20.922;2022-11-09T19:15:34;100220.23;;;9.63;79.79
61697;BME280;47610;52.252;20.922;2022-11-09T19:21:02;100229.08;;;9.61;79.88
61697;BME280;47610;52.252;20.922;2022-11-09T19:26:24;100228.63;;;9.58;79.98
61697;BME280;47610;52.252;20.922;2022-11-09T19:31:47;100240.88;;;9.55;80.08
61697;BME280;47610;52.252;20.922;2022-11-09T19:37:09;100241.03;;;9.51;80.22
61697;BME280;47610;52.252;20.922;2022-11-09T19:42:32;100248.34;;;9.47;80.33
61697;BME280;47610;52.252;20.922;2022-11-09T19:47:55;100238.27;;;9.41;80.40
61697;BME280;47610;52.252;20.922;2022-11-09T19:53:18;100235.95;;;9.32;80.72
61697;BME280;47610;52.252;20.922;2022-11-09T19:58:40;100226.48;;;9.25;81.09
61697;BME280;47610;52.252;20.922;2022-11-09T20:04:02;100224.15;;;9.19;81.21
61697;BME280;47610;52.252;20.922;2022-11-09T20:09:24;100226.27;;;9.11;81.68
61697;BME280;47610;52.252;20.922;2022-11-09T20:14:47;100229.81;;;9.02;81.82
61697;BME280;47610;52.252;20.922;2022-11-09T20:20:14;100232.52;;;8.96;81.92
61697;BME280;47610;52.252;20.922;2022-11-09T20:25:37;100234.27;;;8.88;82.38
61697;BME280;47610;52.252;20.922;2022-11-09T20:30:59;100236.09;;;8.81;82.35
61697;BME280;47610;52.252;20.922;2022-11-09T20:36:22;100236.45;;;8.75;82.53
61697;BME280;47610;52.252;20.922;2022-11-09T20:41:44;100234.91;;;8.63;83.09
61697;BME280;47610;52.252;20.922;2022-11-09T20:47:06;100243.08;;;8.52;83.13
61697;BME280;47610;52.252;20.922;2022-11-09T20:52:28;100237.32;;;8.43;83.63
61697;BME280;47610;52.252;20.922;2022-11-09T20:57:50;100236.41;;;8.35;83.84
61697;BME280;47610;52.252;20.922;2022-11-09T21:03:13;100223.11;;;8.25;84.23
61697;BME280;47610;52.252;20.922;2022-11-09T21:08:37;100223.09;;;8.17;84.46
61697;BME280;47610;52.252;20.922;2022-11-09T21:13:59;100225.25;;;8.08;85.21
61697;BME280;47610;52.252;20.922;2022-11-09T21:19:22;100225.09;;;8.00;85.41
61697;BME280;47610;52.252;20.922;2022-11-09T21:24:45;100222.80;;;7.94;85.26
61697;BME280;47610;52.252;20.922;2022-11-09T21:30:10;100225.90;;;7.92;85.59
61697;BME280;47610;52.252;20.922;2022-11-09T21:35:32;100221.33;;;7.88;85.66
61697;BME280;47610;52.252;20.922;2022-11-09T21:40:57;100223.13;;;7.81;85.89
61697;BME280;47610;52.252;20.922;2022-11-09T21:46:20;100229.31;;;7.74;86.20
61697;BME280;47610;52.252;20.922;2022-11-09T21:51:44;100233.48;;;7.69;86.13
61697;BME280;47610;52.252;20.922;2022-11-09T21:57:08;100229.05;;;7.62;86.35
61697;BME280;47610;52.252;20.922;2022-11-09T22:02:30;100230.07;;;7.56;86.46
61697;BME280;47610;52.252;20.922;2022-11-09T22:07:53;100234.55;;;7.49;86.81
61697;BME280;47610;52.252;20.922;2022-11-09T22:13:16;100234.02;;;7.44;86.80
61697;BME280;47610;52.252;20.922;2022-11-09T22:18:38;100231.89;;;7.39;87.04
61697;BME280;47610;52.252;20.922;2022-11-09T22:24:01;100223.92;;;7.33;87.22
61697;BME280;47610;52.252;20.922;2022-11-09T22:29:24;100229.50;;;7.27;87.54
61697;BME280;47610;52.252;20.922;2022-11-09T22:34:47;100228.16;;;7.24;87.65
61697;BME280;47610;52.252;20.922;2022-11-09T22:40:11;100229.88;;;7.20;87.66
61697;BME280;47610;52.252;20.922;2022-11-09T22:45:35;100227.20;;;7.16;87.82
61697;BME280;47610;52.252;20.922;2022-11-09T22:50:57;100223.20;;;7.16;87.71
61697;BME280;47610;52.252;20.922;2022-11-09T22:56:19;100228.21;;;7.13;88.10
61697;BME280;47610;52.252;20.922;2022-11-09T23:01:42;100233.08;;;7.13;87.96
61697;BME280;47610;52.252;20.922;2022-11-09T23:07:04;100227.11;;;7.12;88.27
61697;BME280;47610;52.252;20.922;2022-11-09T23:12:26;100228.31;;;7.12;88.53
61697;BME280;47610;52.252;20.922;2022-11-09T23:17:51;100232.48;;;7.13;88.63
61697;BME280;47610;52.252;20.922;2022-11-09T23:23:15;100230.83;;;7.16;88.74
61697;BME280;47610;52.252;20.922;2022-11-09T23:28:39;100221.71;;;7.20;88.44
61697;BME280;47610;52.252;20.922;2022-11-09T23:34:01;100242.91;;;7.21;88.63
61697;BME280;47610;52.252;20.922;2022-11-09T23:39:23;100248.58;;;7.23;88.53
61697;BME280;47610;52.252;20.922;2022-11-09T23:44:47;100244.81;;;7.29;88.68
61697;BME280;47610;52.252;20.922;2022-11-09T23:50:10;100254.09;;;7.36;88.71
61697;BME280;47610;52.252;20.922;2022-11-09T23:55:33;100255.10;;;7.43;88.36
